createdAt,value
2018-01-26T00:00:39.849Z,1010.11
2018-01-26T00:01:39.633Z,1010.08
2018-01-26T00:02:39.760Z,1010.09
2018-01-26T00:03:39.578Z,1010.11
2018-01-26T00:04:39.673Z,1010.12
2018-01-26T00:05:39.523Z,1010.10
2018-01-26T00:06:39.685Z,1010.12
2018-01-26T00:07:39.520Z,1010.07
2018-01-26T00:08:39.602Z,1010.11
2018-01-26T00:09:39.417Z,1010.06
2018-01-26T00:10:39.510Z,1010.08
2018-01-26T00:11:39.365Z,1010.06
2018-01-26T00:12:39.521Z,1010.05
2018-01-26T00:13:39.309Z,1010.00
2018-01-26T00:14:39.331Z,1010.00
2018-01-26T00:15:39.256Z,1009.98
2018-01-26T00:16:39.345Z,1010.01
2018-01-26T00:17:39.205Z,1009.97
2018-01-26T00:18:39.256Z,1009.98
2018-01-26T00:19:39.149Z,1009.88
2018-01-26T00:20:39.168Z,1009.88
2018-01-26T00:21:39.093Z,1009.87
2018-01-26T00:22:39.183Z,1009.88
2018-01-26T00:23:39.040Z,1009.91
2018-01-26T00:24:39.093Z,1009.87
2018-01-26T00:25:38.986Z,1009.90
2018-01-26T00:26:39.006Z,1009.86
2018-01-26T00:27:38.938Z,1009.83
2018-01-26T00:28:39.018Z,1009.85
2018-01-26T00:29:38.884Z,1009.90
2018-01-26T00:30:38.934Z,1009.93
2018-01-26T00:31:38.827Z,1009.95
2018-01-26T00:32:38.842Z,1009.99
2018-01-26T00:33:38.771Z,1009.97
2018-01-26T00:34:38.866Z,1009.96
2018-01-26T00:35:38.722Z,1009.93
2018-01-26T00:36:38.767Z,1009.92
2018-01-26T00:37:38.666Z,1009.90
2018-01-26T00:38:38.680Z,1009.92
2018-01-26T00:39:38.611Z,1009.92
2018-01-26T00:40:38.692Z,1009.93
2018-01-26T00:41:38.559Z,1009.88
2018-01-26T00:42:38.603Z,1009.87
2018-01-26T00:43:38.504Z,1009.86
2018-01-26T00:44:38.617Z,1009.91
2018-01-26T00:45:38.448Z,1009.94
2018-01-26T00:46:38.525Z,1009.93
2018-01-26T00:47:38.399Z,1009.97
2018-01-26T00:48:38.441Z,1009.99
2018-01-26T00:49:38.343Z,1010.00
2018-01-26T00:50:38.456Z,1010.02
2018-01-26T00:51:38.287Z,1010.03
2018-01-26T00:52:38.365Z,1010.04
2018-01-26T00:53:38.233Z,1010.02
2018-01-26T00:54:38.277Z,1010.02
2018-01-26T00:55:38.180Z,1009.98
2018-01-26T00:56:38.292Z,1009.93
2018-01-26T00:57:38.127Z,1009.93
2018-01-26T00:58:38.200Z,1009.94
2018-01-26T00:59:38.072Z,1009.90
2018-01-26T01:00:38.114Z,1009.85
2018-01-26T01:01:38.019Z,1009.86
2018-01-26T01:02:38.126Z,1009.88
2018-01-26T01:03:37.966Z,1009.84
2018-01-26T01:04:38.040Z,1009.88
2018-01-26T01:05:37.913Z,1009.87
2018-01-26T01:06:37.952Z,1009.90
2018-01-26T01:07:37.857Z,1009.87
2018-01-26T01:08:37.965Z,1009.86
2018-01-26T01:09:37.808Z,1009.89
2018-01-26T01:10:37.876Z,1009.88
2018-01-26T01:11:37.753Z,1009.93
2018-01-26T01:12:37.841Z,1009.93
2018-01-26T01:13:37.695Z,1009.97
2018-01-26T01:14:37.801Z,1009.95
2018-01-26T01:15:37.643Z,1009.97
2018-01-26T01:16:37.717Z,1009.95
2018-01-26T01:17:37.586Z,1009.93
2018-01-26T01:18:37.634Z,1009.96
2018-01-26T01:19:37.532Z,1010.00
2018-01-26T01:20:37.639Z,1010.00
2018-01-26T01:21:37.480Z,1009.99
2018-01-26T01:22:37.555Z,1009.99
2018-01-26T01:23:37.423Z,1010.03
2018-01-26T01:24:37.565Z,1010.02
2018-01-26T01:25:37.372Z,1010.01
2018-01-26T01:26:37.478Z,1010.03
2018-01-26T01:27:37.320Z,1009.98
2018-01-26T01:28:37.388Z,1010.01
2018-01-26T01:29:37.264Z,1010.04
2018-01-26T01:30:37.401Z,1010.00
2018-01-26T01:31:37.206Z,1010.01
2018-01-26T01:32:37.314Z,1009.99
2018-01-26T01:33:37.155Z,1009.98
2018-01-26T01:34:37.225Z,1009.95
2018-01-26T01:35:37.100Z,1009.93
2018-01-26T01:36:37.239Z,1009.96
2018-01-26T01:37:37.047Z,1009.97
2018-01-26T01:38:37.151Z,1009.98
2018-01-26T01:39:36.992Z,1009.99
2018-01-26T01:40:37.064Z,1010.02
2018-01-26T01:41:36.936Z,1010.08
2018-01-26T01:42:37.076Z,1010.13
2018-01-26T01:43:36.882Z,1010.12
2018-01-26T01:44:36.988Z,1010.14
2018-01-26T01:45:36.829Z,1010.13
2018-01-26T01:46:36.901Z,1010.13
2018-01-26T01:47:36.773Z,1010.13
2018-01-26T01:48:36.915Z,1010.17
2018-01-26T01:49:36.718Z,1010.16
2018-01-26T01:50:36.830Z,1010.15
2018-01-26T01:51:36.659Z,1010.18
2018-01-26T01:52:36.734Z,1010.14
2018-01-26T01:53:36.612Z,1010.18
2018-01-26T01:54:36.751Z,1010.18
2018-01-26T01:55:36.560Z,1010.16
2018-01-26T01:56:36.659Z,1010.22
2018-01-26T01:57:36.504Z,1010.25
2018-01-26T01:58:36.574Z,1010.32
2018-01-26T01:59:36.451Z,1010.32
2018-01-26T02:00:36.587Z,1010.30
2018-01-26T02:01:36.394Z,1010.34
2018-01-26T02:02:36.500Z,1010.32
2018-01-26T02:03:36.339Z,1010.32
2018-01-26T02:04:36.515Z,1010.30
2018-01-26T02:05:36.333Z,1010.34
2018-01-26T02:06:36.426Z,1010.32
2018-01-26T02:07:36.254Z,1010.32
2018-01-26T02:08:36.336Z,1010.34
2018-01-26T02:09:36.180Z,1010.36
2018-01-26T02:10:36.348Z,1010.33
2018-01-26T02:11:36.124Z,1010.32
2018-01-26T02:12:36.265Z,1010.34
2018-01-26T02:13:36.074Z,1010.33
2018-01-26T02:14:36.172Z,1010.33
2018-01-26T02:15:36.015Z,1010.33
2018-01-26T02:16:36.192Z,1010.33
2018-01-26T02:17:35.964Z,1010.30
2018-01-26T02:18:36.098Z,1010.29
2018-01-26T02:19:35.905Z,1010.30
2018-01-26T02:20:36.010Z,1010.28
2018-01-26T02:21:35.853Z,1010.29
2018-01-26T02:22:36.022Z,1010.31
2018-01-26T02:23:35.800Z,1010.27
2018-01-26T02:24:35.934Z,1010.27
2018-01-26T02:25:35.744Z,1010.26
2018-01-26T02:26:35.844Z,1010.27
2018-01-26T02:27:35.691Z,1010.24
2018-01-26T02:28:35.859Z,1010.24
2018-01-26T02:29:35.634Z,1010.24
2018-01-26T02:30:35.772Z,1010.27
2018-01-26T02:31:35.581Z,1010.26
2018-01-26T02:32:35.683Z,1010.25
2018-01-26T02:33:35.526Z,1010.23
2018-01-26T02:34:35.696Z,1010.26
2018-01-26T02:35:35.470Z,1010.27
2018-01-26T02:36:35.609Z,1010.29
2018-01-26T02:37:35.414Z,1010.26
2018-01-26T02:38:35.421Z,1010.28
2018-01-26T02:39:35.360Z,1010.24
2018-01-26T02:40:35.460Z,1010.23
2018-01-26T02:41:35.306Z,1010.20
2018-01-26T02:42:35.344Z,1010.21
2018-01-26T02:43:35.253Z,1010.19
2018-01-26T02:44:35.254Z,1010.17
2018-01-26T02:45:35.198Z,1010.17
2018-01-26T02:46:35.271Z,1010.09
2018-01-26T02:47:35.171Z,1010.06
2018-01-26T02:48:35.179Z,1010.08
2018-01-26T02:49:35.090Z,1010.01
2018-01-26T02:50:35.092Z,1010.00
2018-01-26T02:51:35.033Z,1009.96
2018-01-26T02:52:35.109Z,1009.96
2018-01-26T02:53:34.980Z,1009.96
2018-01-26T02:54:35.016Z,1009.95
2018-01-26T02:55:34.925Z,1009.95
2018-01-26T02:56:34.927Z,1009.92
2018-01-26T02:57:34.869Z,1009.90
2018-01-26T02:58:34.942Z,1009.86
2018-01-26T02:59:34.815Z,1009.85
2018-01-26T03:00:34.855Z,1009.89
2018-01-26T03:01:34.757Z,1009.89
2018-01-26T03:02:34.867Z,1009.92
2018-01-26T03:03:34.701Z,1009.90
2018-01-26T03:04:34.778Z,1009.95
2018-01-26T03:05:34.648Z,1009.92
2018-01-26T03:06:34.690Z,1009.98
2018-01-26T03:07:34.593Z,1009.98
2018-01-26T03:08:34.705Z,1010.00
2018-01-26T03:09:34.538Z,1009.95
2018-01-26T03:10:34.614Z,1010.01
2018-01-26T03:11:34.483Z,1010.02
2018-01-26T03:12:34.526Z,1010.05
2018-01-26T03:13:34.432Z,1010.06
2018-01-26T03:14:34.542Z,1010.14
2018-01-26T03:15:34.374Z,1010.18
2018-01-26T03:16:34.453Z,1010.22
2018-01-26T03:17:34.318Z,1010.22
2018-01-26T03:18:34.363Z,1010.19
2018-01-26T03:19:34.264Z,1010.15
2018-01-26T03:20:34.378Z,1010.19
2018-01-26T03:21:34.220Z,1010.18
2018-01-26T03:22:34.290Z,1010.22
2018-01-26T03:23:34.156Z,1010.24
2018-01-26T03:24:34.201Z,1010.22
2018-01-26T03:25:34.099Z,1010.21
2018-01-26T03:26:34.215Z,1010.26
2018-01-26T03:27:34.042Z,1010.28
2018-01-26T03:28:34.126Z,1010.25
2018-01-26T03:29:33.987Z,1010.34
2018-01-26T03:30:34.037Z,1010.35
2018-01-26T03:31:33.934Z,1010.38
2018-01-26T03:32:34.052Z,1010.39
2018-01-26T03:33:33.886Z,1010.37
2018-01-26T03:34:33.967Z,1010.39
2018-01-26T03:35:33.822Z,1010.40
2018-01-26T03:36:33.874Z,1010.43
2018-01-26T03:37:33.769Z,1010.46
2018-01-26T03:38:33.889Z,1010.43
2018-01-26T03:39:33.714Z,1010.46
2018-01-26T03:40:33.797Z,1010.42
2018-01-26T03:41:33.657Z,1010.44
2018-01-26T03:42:33.710Z,1010.46
2018-01-26T03:43:33.604Z,1010.46
2018-01-26T03:44:33.727Z,1010.42
2018-01-26T03:45:33.549Z,1010.44
2018-01-26T03:46:33.636Z,1010.49
2018-01-26T03:47:33.493Z,1010.44
2018-01-26T03:48:33.549Z,1010.47
2018-01-26T03:49:33.438Z,1010.46
2018-01-26T03:50:33.563Z,1010.47
2018-01-26T03:51:33.384Z,1010.48
2018-01-26T03:52:33.474Z,1010.48
2018-01-26T03:53:33.327Z,1010.47
2018-01-26T03:54:33.385Z,1010.49
2018-01-26T03:55:33.280Z,1010.49
2018-01-26T03:56:33.404Z,1010.50
2018-01-26T03:57:33.218Z,1010.50
2018-01-26T03:58:33.311Z,1010.51
2018-01-26T03:59:33.163Z,1010.54
2018-01-26T04:00:33.223Z,1010.54
2018-01-26T04:01:33.108Z,1010.54
2018-01-26T04:02:33.236Z,1010.60
2018-01-26T04:03:33.054Z,1010.63
2018-01-26T04:04:33.150Z,1010.64
2018-01-26T04:05:32.996Z,1010.70
2018-01-26T04:06:33.058Z,1010.71
2018-01-26T04:07:32.942Z,1010.70
2018-01-26T04:08:33.072Z,1010.75
2018-01-26T04:09:32.888Z,1010.75
2018-01-26T04:10:32.984Z,1010.71
2018-01-26T04:11:32.833Z,1010.72
2018-01-26T04:12:32.896Z,1010.71
2018-01-26T04:13:32.778Z,1010.67
2018-01-26T04:14:32.912Z,1010.69
2018-01-26T04:15:32.723Z,1010.69
2018-01-26T04:16:32.822Z,1010.70
2018-01-26T04:17:32.670Z,1010.74
2018-01-26T04:18:32.835Z,1010.74
2018-01-26T04:19:32.613Z,1010.78
2018-01-26T04:20:32.745Z,1010.80
2018-01-26T04:21:32.557Z,1010.83
2018-01-26T04:22:32.657Z,1010.84
2018-01-26T04:23:32.502Z,1010.88
2018-01-26T04:24:32.670Z,1010.89
2018-01-26T04:25:32.451Z,1010.88
2018-01-26T04:26:32.585Z,1010.90
2018-01-26T04:27:32.395Z,1010.95
2018-01-26T04:28:32.495Z,1010.91
2018-01-26T04:29:32.339Z,1010.93
2018-01-26T04:30:32.509Z,1010.95
2018-01-26T04:31:32.284Z,1010.88
2018-01-26T04:32:32.421Z,1010.88
2018-01-26T04:33:32.230Z,1010.93
2018-01-26T04:34:32.332Z,1010.92
2018-01-26T04:35:32.172Z,1011.00
2018-01-26T04:36:32.348Z,1010.98
2018-01-26T04:37:32.117Z,1011.01
2018-01-26T04:38:32.260Z,1011.02
2018-01-26T04:39:32.065Z,1011.05
2018-01-26T04:40:32.169Z,1011.10
2018-01-26T04:41:32.014Z,1011.08
2018-01-26T04:42:32.181Z,1011.14
2018-01-26T04:43:31.951Z,1011.08
2018-01-26T04:44:32.094Z,1011.14
2018-01-26T04:45:31.896Z,1011.18
2018-01-26T04:46:32.005Z,1011.18
2018-01-26T04:47:31.841Z,1011.14
2018-01-26T04:48:32.020Z,1011.17
2018-01-26T04:49:31.786Z,1011.22
2018-01-26T04:50:31.932Z,1011.21
2018-01-26T04:51:31.736Z,1011.21
2018-01-26T04:52:31.841Z,1011.17
2018-01-26T04:53:31.681Z,1011.19
2018-01-26T04:54:31.859Z,1011.17
2018-01-26T04:55:31.620Z,1011.14
2018-01-26T04:56:31.773Z,1011.16
2018-01-26T04:57:31.565Z,1011.13
2018-01-26T04:58:31.680Z,1011.09
2018-01-26T04:59:31.512Z,1011.14
2018-01-26T05:00:31.694Z,1011.18
2018-01-26T05:01:31.454Z,1011.18
2018-01-26T05:02:31.503Z,1011.17
2018-01-26T05:03:31.399Z,1011.16
2018-01-26T05:04:31.414Z,1011.20
2018-01-26T05:05:31.345Z,1011.22
2018-01-26T05:06:31.429Z,1011.19
2018-01-26T05:07:31.289Z,1011.17
2018-01-26T05:08:31.340Z,1011.22
2018-01-26T05:09:31.231Z,1011.20
2018-01-26T05:10:31.250Z,1011.14
2018-01-26T05:11:31.176Z,1011.15
2018-01-26T05:12:31.264Z,1011.12
2018-01-26T05:13:31.124Z,1011.11
2018-01-26T05:14:31.176Z,1011.12
2018-01-26T05:15:31.068Z,1011.13
2018-01-26T05:16:31.089Z,1011.08
2018-01-26T05:17:31.013Z,1011.09
2018-01-26T05:18:31.102Z,1011.06
2018-01-26T05:19:30.956Z,1011.04
2018-01-26T05:20:31.015Z,1011.03
2018-01-26T05:21:30.900Z,1010.99
2018-01-26T05:22:30.925Z,1011.02
2018-01-26T05:23:30.845Z,1011.04
2018-01-26T05:24:30.939Z,1011.06
2018-01-26T05:25:30.789Z,1011.14
2018-01-26T05:26:30.850Z,1011.15
2018-01-26T05:27:30.737Z,1011.18
2018-01-26T05:28:30.765Z,1011.20
2018-01-26T05:29:30.683Z,1011.16
2018-01-26T05:30:30.774Z,1011.24
2018-01-26T05:31:30.621Z,1011.23
2018-01-26T05:32:30.686Z,1011.28
2018-01-26T05:33:30.582Z,1011.27
2018-01-26T05:34:30.635Z,1011.31
2018-01-26T05:35:30.512Z,1011.31
2018-01-26T05:36:30.612Z,1011.26
2018-01-26T05:37:30.459Z,1011.26
2018-01-26T05:38:30.523Z,1011.23
2018-01-26T05:39:30.402Z,1011.23
2018-01-26T05:40:30.434Z,1011.23
2018-01-26T05:41:30.346Z,1011.24
2018-01-26T05:42:30.447Z,1011.26
2018-01-26T05:43:30.294Z,1011.25
2018-01-26T05:44:30.362Z,1011.28
2018-01-26T05:45:30.236Z,1011.32
2018-01-26T05:46:30.272Z,1011.35
2018-01-26T05:47:30.180Z,1011.39
2018-01-26T05:48:30.316Z,1011.44
2018-01-26T05:49:30.125Z,1011.45
2018-01-26T05:50:30.205Z,1011.47
2018-01-26T05:51:30.069Z,1011.48
2018-01-26T05:52:30.110Z,1011.48
2018-01-26T05:53:30.016Z,1011.47
2018-01-26T05:54:30.123Z,1011.48
2018-01-26T05:55:29.957Z,1011.47
2018-01-26T05:56:30.035Z,1011.48
2018-01-26T05:57:29.901Z,1011.49
2018-01-26T05:58:29.943Z,1011.45
2018-01-26T05:59:29.848Z,1011.48
2018-01-26T06:00:29.966Z,1011.46
2018-01-26T06:01:29.793Z,1011.43
2018-01-26T06:02:29.871Z,1011.47
2018-01-26T06:03:29.737Z,1011.47
2018-01-26T06:04:29.783Z,1011.48
2018-01-26T06:05:29.680Z,1011.45
2018-01-26T06:06:29.794Z,1011.47
2018-01-26T06:07:29.627Z,1011.46
2018-01-26T06:08:29.709Z,1011.52
2018-01-26T06:09:29.570Z,1011.51
2018-01-26T06:10:29.619Z,1011.52
2018-01-26T06:11:29.514Z,1011.56
2018-01-26T06:12:29.631Z,1011.62
2018-01-26T06:13:29.461Z,1011.63
2018-01-26T06:14:29.543Z,1011.63
2018-01-26T06:15:29.406Z,1011.63
2018-01-26T06:16:29.455Z,1011.62
2018-01-26T06:17:29.371Z,1011.60
2018-01-26T06:18:29.469Z,1011.64
2018-01-26T06:19:29.292Z,1011.67
2018-01-26T06:20:29.383Z,1011.70
2018-01-26T06:21:29.238Z,1011.73
2018-01-26T06:22:29.294Z,1011.72
2018-01-26T06:23:29.181Z,1011.74
2018-01-26T06:24:29.308Z,1011.76
2018-01-26T06:25:29.126Z,1011.75
2018-01-26T06:26:29.219Z,1011.74
2018-01-26T06:27:29.071Z,1011.74
2018-01-26T06:28:29.129Z,1011.75
2018-01-26T06:29:29.018Z,1011.70
2018-01-26T06:30:29.145Z,1011.67
2018-01-26T06:31:28.959Z,1011.72
2018-01-26T06:32:29.054Z,1011.77
2018-01-26T06:33:28.907Z,1011.78
2018-01-26T06:34:28.968Z,1011.80
2018-01-26T06:35:28.847Z,1011.84
2018-01-26T06:36:28.980Z,1011.83
2018-01-26T06:37:28.801Z,1011.78
2018-01-26T06:38:28.892Z,1011.81
2018-01-26T06:39:28.739Z,1011.81
2018-01-26T06:40:28.804Z,1011.81
2018-01-26T06:41:28.689Z,1011.84
2018-01-26T06:42:28.818Z,1011.93
2018-01-26T06:43:28.629Z,1011.88
2018-01-26T06:44:28.729Z,1011.94
2018-01-26T06:45:28.596Z,1011.95
2018-01-26T06:46:28.641Z,1011.99
2018-01-26T06:47:28.518Z,1011.97
2018-01-26T06:48:28.655Z,1011.98
2018-01-26T06:49:28.466Z,1011.97
2018-01-26T06:50:28.567Z,1011.99
2018-01-26T06:51:28.407Z,1011.97
2018-01-26T06:52:28.583Z,1011.97
2018-01-26T06:53:28.352Z,1012.00
2018-01-26T06:54:28.492Z,1012.05
2018-01-26T06:55:28.297Z,1012.04
2018-01-26T06:56:28.405Z,1012.08
2018-01-26T06:57:28.240Z,1012.11
2018-01-26T06:58:28.416Z,1012.18
2018-01-26T06:59:28.189Z,1012.20
2018-01-26T07:00:28.326Z,1012.22
2018-01-26T07:01:28.131Z,1012.21
2018-01-26T07:02:28.242Z,1012.20
2018-01-26T07:03:28.074Z,1012.20
2018-01-26T07:04:28.275Z,1012.20
2018-01-26T07:05:28.022Z,1012.21
2018-01-26T07:06:28.168Z,1012.25
2018-01-26T07:07:27.963Z,1012.28
2018-01-26T07:08:28.097Z,1012.31
2018-01-26T07:09:27.906Z,1012.34
2018-01-26T07:10:28.091Z,1012.38
2018-01-26T07:11:27.854Z,1012.37
2018-01-26T07:12:28.004Z,1012.42
2018-01-26T07:13:27.799Z,1012.44
2018-01-26T07:14:27.915Z,1012.45
2018-01-26T07:15:27.742Z,1012.49
2018-01-26T07:16:27.931Z,1012.48
2018-01-26T07:17:27.691Z,1012.54
2018-01-26T07:18:27.840Z,1012.47
2018-01-26T07:19:27.635Z,1012.52
2018-01-26T07:20:27.650Z,1012.55
2018-01-26T07:21:27.577Z,1012.57
2018-01-26T07:22:27.764Z,1012.55
2018-01-26T07:23:27.520Z,1012.56
2018-01-26T07:24:27.501Z,1012.57
2018-01-26T07:25:27.466Z,1012.55
2018-01-26T07:26:27.594Z,1012.60
2018-01-26T07:27:27.410Z,1012.65
2018-01-26T07:28:27.501Z,1012.68
2018-01-26T07:29:27.354Z,1012.71
2018-01-26T07:30:27.413Z,1012.72
2018-01-26T07:31:27.302Z,1012.77
2018-01-26T07:32:27.321Z,1012.75
2018-01-26T07:33:27.243Z,1012.76
2018-01-26T07:34:27.338Z,1012.78
2018-01-26T07:35:27.189Z,1012.73
2018-01-26T07:36:27.247Z,1012.73
2018-01-26T07:37:27.132Z,1012.75
2018-01-26T07:38:27.166Z,1012.78
2018-01-26T07:39:27.075Z,1012.81
2018-01-26T07:40:27.172Z,1012.83
2018-01-26T07:41:27.030Z,1012.88
2018-01-26T07:42:27.084Z,1012.90
2018-01-26T07:43:26.963Z,1012.90
2018-01-26T07:44:26.994Z,1012.86
2018-01-26T07:45:26.911Z,1012.83
2018-01-26T07:46:27.009Z,1012.83
2018-01-26T07:47:26.854Z,1012.82
2018-01-26T07:48:26.921Z,1012.82
2018-01-26T07:49:26.799Z,1012.80
2018-01-26T07:50:26.832Z,1012.85
2018-01-26T07:51:26.746Z,1012.81
2018-01-26T07:52:26.852Z,1012.84
2018-01-26T07:53:26.693Z,1012.85
2018-01-26T07:54:26.758Z,1012.89
2018-01-26T07:55:26.630Z,1012.86
2018-01-26T07:56:26.670Z,1012.88
2018-01-26T07:57:26.577Z,1012.94
2018-01-26T07:58:26.734Z,1012.97
2018-01-26T07:59:26.539Z,1012.96
2018-01-26T08:00:26.597Z,1012.97
2018-01-26T08:01:26.465Z,1013.03
2018-01-26T08:02:26.509Z,1013.03
2018-01-26T08:03:26.415Z,1013.09
2018-01-26T08:04:26.576Z,1013.12
2018-01-26T08:05:26.355Z,1013.10
2018-01-26T08:06:26.436Z,1013.16
2018-01-26T08:07:26.299Z,1013.14
2018-01-26T08:08:26.346Z,1013.14
2018-01-26T08:09:26.246Z,1013.14
2018-01-26T08:10:26.358Z,1013.13
2018-01-26T08:11:26.211Z,1013.07
2018-01-26T08:12:26.269Z,1013.08
2018-01-26T08:13:26.137Z,1013.11
2018-01-26T08:14:26.182Z,1013.14
2018-01-26T08:15:26.079Z,1013.19
2018-01-26T08:16:26.093Z,1013.18
2018-01-26T08:17:26.024Z,1013.17
2018-01-26T08:18:25.997Z,1013.13
2018-01-26T08:19:25.966Z,1013.13
2018-01-26T08:20:26.278Z,1013.12
2018-01-26T08:21:25.910Z,1013.19
2018-01-26T08:22:25.935Z,1013.18
2018-01-26T08:23:25.857Z,1013.16
2018-01-26T08:24:25.842Z,1013.14
2018-01-26T08:25:25.802Z,1013.16
2018-01-26T08:26:25.857Z,1013.17
2018-01-26T08:27:25.749Z,1013.19
2018-01-26T08:28:25.766Z,1013.20
2018-01-26T08:29:25.692Z,1013.21
2018-01-26T08:30:25.678Z,1013.20
2018-01-26T08:31:25.635Z,1013.19
2018-01-26T08:32:25.691Z,1013.20
2018-01-26T08:33:25.582Z,1013.22
2018-01-26T08:34:25.604Z,1013.21
2018-01-26T08:35:25.525Z,1013.23
2018-01-26T08:36:25.515Z,1013.23
2018-01-26T08:37:25.472Z,1013.23
2018-01-26T08:38:25.531Z,1013.25
2018-01-26T08:39:25.415Z,1013.29
2018-01-26T08:40:25.441Z,1013.27
2018-01-26T08:41:25.359Z,1013.34
2018-01-26T08:42:25.353Z,1013.33
2018-01-26T08:43:25.305Z,1013.33
2018-01-26T08:44:25.367Z,1013.32
2018-01-26T08:45:25.249Z,1013.29
2018-01-26T08:46:25.278Z,1013.31
2018-01-26T08:47:25.196Z,1013.32
2018-01-26T08:48:25.191Z,1013.33
2018-01-26T08:49:25.141Z,1013.34
2018-01-26T08:50:25.203Z,1013.37
2018-01-26T08:51:25.084Z,1013.39
2018-01-26T08:52:25.115Z,1013.40
2018-01-26T08:53:25.040Z,1013.41
2018-01-26T08:54:25.025Z,1013.38
2018-01-26T08:55:24.974Z,1013.40
2018-01-26T08:56:25.040Z,1013.42
2018-01-26T08:57:24.919Z,1013.40
2018-01-26T08:58:24.951Z,1013.42
2018-01-26T08:59:24.863Z,1013.42
2018-01-26T09:00:24.866Z,1013.45
2018-01-26T09:01:24.812Z,1013.51
2018-01-26T09:02:24.877Z,1013.50
2018-01-26T09:03:24.761Z,1013.54
2018-01-26T09:04:24.788Z,1013.59
2018-01-26T09:05:24.701Z,1013.61
2018-01-26T09:06:24.740Z,1013.60
2018-01-26T09:07:24.643Z,1013.60
2018-01-26T09:08:24.764Z,1013.65
2018-01-26T09:09:24.590Z,1013.64
2018-01-26T09:10:24.626Z,1013.67
2018-01-26T09:11:24.535Z,1013.66
2018-01-26T09:12:24.536Z,1013.65
2018-01-26T09:13:24.481Z,1013.68
2018-01-26T09:14:24.551Z,1013.72
2018-01-26T09:15:24.418Z,1013.70
2018-01-26T09:16:24.407Z,1013.74
2018-01-26T09:17:24.370Z,1013.74
2018-01-26T09:18:24.375Z,1013.78
2018-01-26T09:19:24.898Z,1013.80
2018-01-26T09:20:25.925Z,1013.82
2018-01-26T09:22:58.082Z,1013.81
2018-01-26T09:23:57.933Z,1013.85
2018-01-26T09:24:57.921Z,1013.84
2018-01-26T09:25:57.881Z,1013.84
2018-01-26T09:26:57.934Z,1013.90
2018-01-26T09:27:57.823Z,1013.87
2018-01-26T09:28:57.845Z,1013.85
2018-01-26T09:29:57.768Z,1013.87
2018-01-26T09:30:57.758Z,1013.85
2018-01-26T09:31:57.712Z,1013.91
2018-01-26T09:32:57.770Z,1013.89
2018-01-26T09:33:57.658Z,1013.92
2018-01-26T09:34:57.683Z,1013.91
2018-01-26T09:35:57.602Z,1013.93
2018-01-26T09:36:57.595Z,1013.96
2018-01-26T09:37:57.549Z,1013.93
2018-01-26T09:38:57.611Z,1013.98
2018-01-26T09:39:57.495Z,1013.96
2018-01-26T09:40:57.520Z,1013.99
2018-01-26T09:41:57.438Z,1014.00
2018-01-26T09:42:57.430Z,1014.05
2018-01-26T09:43:57.383Z,1014.07
2018-01-26T09:44:57.444Z,1014.11
2018-01-26T09:45:57.328Z,1014.18
2018-01-26T09:46:57.360Z,1014.17
2018-01-26T09:47:57.276Z,1014.26
2018-01-26T09:48:57.268Z,1014.24
2018-01-26T09:49:57.223Z,1014.25
2018-01-26T09:50:57.284Z,1014.24
2018-01-26T09:51:57.165Z,1014.28
2018-01-26T09:52:57.198Z,1014.25
2018-01-26T09:53:57.113Z,1014.33
2018-01-26T09:54:57.105Z,1014.36
2018-01-26T09:55:57.059Z,1014.35
2018-01-26T09:56:57.121Z,1014.40
2018-01-26T09:57:57.005Z,1014.36
2018-01-26T09:58:57.033Z,1014.35
2018-01-26T09:59:56.950Z,1014.32
2018-01-26T10:00:56.941Z,1014.32
2018-01-26T10:01:56.898Z,1014.30
2018-01-26T10:02:56.954Z,1014.31
2018-01-26T10:03:56.845Z,1014.34
2018-01-26T10:04:56.896Z,1014.35
2018-01-26T10:05:56.792Z,1014.36
2018-01-26T10:06:56.785Z,1014.35
2018-01-26T10:07:56.736Z,1014.39
2018-01-26T10:08:56.797Z,1014.42
2018-01-26T10:09:56.684Z,1014.48
2018-01-26T10:10:56.708Z,1014.48
2018-01-26T10:11:56.636Z,1014.42
2018-01-26T10:12:56.727Z,1014.47
2018-01-26T10:13:56.575Z,1014.51
2018-01-26T10:14:56.630Z,1014.52
2018-01-26T10:15:56.524Z,1014.54
2018-01-26T10:16:56.541Z,1014.61
2018-01-26T10:17:56.470Z,1014.57
2018-01-26T10:18:56.555Z,1014.60
2018-01-26T10:19:56.419Z,1014.59
2018-01-26T10:20:56.466Z,1014.62
2018-01-26T10:21:56.363Z,1014.62
2018-01-26T10:22:56.378Z,1014.62
2018-01-26T10:23:56.313Z,1014.66
2018-01-26T10:24:56.393Z,1014.73
2018-01-26T10:25:56.259Z,1014.77
2018-01-26T10:26:56.304Z,1014.77
2018-01-26T10:27:56.215Z,1014.76
2018-01-26T10:28:56.214Z,1014.83
2018-01-26T10:29:56.156Z,1014.84
2018-01-26T10:30:56.228Z,1014.82
2018-01-26T10:31:56.108Z,1014.78
2018-01-26T10:32:56.141Z,1014.80
2018-01-26T10:33:56.140Z,1014.86
2018-01-26T10:34:56.051Z,1014.85
2018-01-26T10:35:56.006Z,1014.80
2018-01-26T10:36:56.066Z,1014.76
2018-01-26T10:37:55.956Z,1014.75
2018-01-26T10:38:55.977Z,1014.80
2018-01-26T10:39:55.907Z,1014.78
2018-01-26T10:40:55.990Z,1014.78
2018-01-26T10:41:55.858Z,1014.79
2018-01-26T10:42:55.904Z,1014.76
2018-01-26T10:43:55.809Z,1014.74
2018-01-26T10:44:55.814Z,1014.79
2018-01-26T10:45:55.758Z,1014.77
2018-01-26T10:46:55.829Z,1014.81
2018-01-26T10:47:55.709Z,1014.84
2018-01-26T10:48:55.686Z,1014.88
2018-01-26T10:49:55.796Z,1014.88
2018-01-26T10:50:55.637Z,1014.94
2018-01-26T10:51:55.658Z,1014.99
2018-01-26T10:52:55.587Z,1015.00
2018-01-26T10:53:55.561Z,1015.02
2018-01-26T10:54:55.575Z,1014.96
2018-01-26T10:55:55.523Z,1014.99
2018-01-26T10:56:55.589Z,1014.98
2018-01-26T10:57:55.460Z,1015.04
2018-01-26T10:58:55.503Z,1015.01
2018-01-26T10:59:55.412Z,1014.99
2018-01-26T11:00:55.413Z,1014.99
2018-01-26T11:01:55.360Z,1014.96
2018-01-26T11:02:55.426Z,1014.95
2018-01-26T11:03:55.310Z,1015.01
2018-01-26T11:04:55.339Z,1015.04
2018-01-26T11:05:55.260Z,1015.10
2018-01-26T11:06:55.248Z,1015.09
2018-01-26T11:07:55.212Z,1015.05
2018-01-26T11:08:55.263Z,1015.06
2018-01-26T11:09:55.160Z,1015.08
2018-01-26T11:10:55.176Z,1015.12
2018-01-26T11:11:55.112Z,1015.19
2018-01-26T11:12:55.190Z,1015.21
2018-01-26T11:13:55.061Z,1015.22
2018-01-26T11:14:55.102Z,1015.24
2018-01-26T11:15:55.012Z,1015.27
2018-01-26T11:16:55.012Z,1015.20
2018-01-26T11:17:54.962Z,1015.28
2018-01-26T11:18:55.026Z,1015.21
2018-01-26T11:19:54.914Z,1015.23
2018-01-26T11:20:54.937Z,1015.23
2018-01-26T11:21:54.864Z,1015.25
2018-01-26T11:22:54.950Z,1015.22
2018-01-26T11:23:54.817Z,1015.22
2018-01-26T11:24:54.862Z,1015.26
2018-01-26T11:25:54.769Z,1015.26
2018-01-26T11:26:54.776Z,1015.33
2018-01-26T11:27:54.718Z,1015.37
2018-01-26T11:28:54.789Z,1015.36
2018-01-26T11:29:54.669Z,1015.40
2018-01-26T11:30:54.700Z,1015.44
2018-01-26T11:31:54.620Z,1015.41
2018-01-26T11:32:54.611Z,1015.47
2018-01-26T11:33:54.571Z,1015.45
2018-01-26T11:34:54.626Z,1015.57
2018-01-26T11:35:54.525Z,1015.51
2018-01-26T11:36:54.536Z,1015.59
2018-01-26T11:37:54.475Z,1015.58
2018-01-26T11:38:54.551Z,1015.59
2018-01-26T11:39:54.429Z,1015.53
2018-01-26T11:40:54.461Z,1015.53
2018-01-26T11:41:54.382Z,1015.54
2018-01-26T11:42:54.373Z,1015.54
2018-01-26T11:43:54.334Z,1015.57
2018-01-26T11:44:54.387Z,1015.53
2018-01-26T11:45:54.286Z,1015.51
2018-01-26T11:46:54.300Z,1015.51
2018-01-26T11:47:54.241Z,1015.53
2018-01-26T11:48:54.312Z,1015.55
2018-01-26T11:49:54.191Z,1015.58
2018-01-26T11:50:54.225Z,1015.57
2018-01-26T11:51:54.147Z,1015.44
2018-01-26T11:52:54.134Z,1015.41
2018-01-26T11:53:54.096Z,1015.48
2018-01-26T11:54:54.150Z,1015.49
2018-01-26T11:55:54.049Z,1015.52
2018-01-26T11:56:54.060Z,1015.47
2018-01-26T11:57:54.002Z,1015.45
2018-01-26T11:58:54.074Z,1015.49
2018-01-26T11:59:53.953Z,1015.55
2018-01-26T12:00:53.987Z,1015.52
2018-01-26T12:01:53.906Z,1015.58
2018-01-26T12:02:53.899Z,1015.55
2018-01-26T12:03:53.854Z,1015.51
2018-01-26T12:04:53.834Z,1015.60
2018-01-26T12:05:53.920Z,1015.53
2018-01-26T12:06:53.782Z,1015.59